This is the latest recevied weather packets stored in our database for station/object LKKU. If no packets are shown the sender has not sent any weather packets the latest 10 day(s).
| Time | Temp. | Humidity | Pressure | Rain* | Wind** | Luminosity | Snow |
|---|---|---|---|---|---|---|---|
| 1778144586 | 18.89° C | 55% | 1011 hPa | - | - | - | - |
| 1778140960 | 17.78° C | 63% | 1011 hPa | - | - | - | - |
| 1778137386 | 17.22° C | 67% | 1011 hPa | - | - | - | - |
| 1778133787 | 16.11° C | 72% | 1010 hPa | - | - | - | - |
| 1778130162 | 15° C | 77% | 1010 hPa | - | - | - | - |
| 1778085165 | 22.78° C | 43% | 1005 hPa | - | - | - | - |
| 1778083386 | 23.89° C | 38% | 1005 hPa | - | - | - | - |
| 1778079787 | 23.89° C | 38% | 1006 hPa | - | - | - | - |
| 1778076187 | 22.78° C | 46% | 1006 hPa | - | - | - | - |
| 1778072586 | 23.89° C | 44% | 1007 hPa | - | - | - | - |
| 1778068986 | 23.89° C | 44% | 1007 hPa | - | - | - | - |
| 1778065385 | 23.89° C | 44% | 1008 hPa | - | - | - | - |
| 1778063557 | 23.89° C | 41% | 1008 hPa | - | - | - | - |
| 1778061794 | 22.22° C | 49% | 1008 hPa | - | - | - | - |
| 1778058194 | 20° C | 56% | 1008 hPa | - | - | - | - |
| 1778054586 | 20° C | 56% | 1008 hPa | - | - | - | - |
| 1778050986 | 17.78° C | 63% | 1009 hPa | - | - | - | - |
| 1778047386 | 16.11° C | 67% | 1008 hPa | - | - | - | - |
| 1778043786 | 15° C | 67% | 1008 hPa | - | - | - | - |
| 1777989794 | 25° C | 29% | 1007 hPa | - | - | - | - |
| 1777987958 | 26.11° C | 22% | 1007 hPa | - | - | - | - |
| 1777986169 | 27.22° C | 21% | 1007 hPa | - | - | - | - |
| 1777985584 | 27.22° C | 22% | 1007 hPa | - | - | - | - |
| 1777978971 | 23.89° C | 31% | 1009 hPa | - | - | - | - |
| 1777975386 | 23.89° C | 31% | 1009 hPa | - | - | - | - |
* Rain since midnight (hover to see other rain measurements)
** Current wind speed in m/s (hover to see current wind gust speed)